Time;durP1;ratioP1;P1;durP2;ratioP2;P2;SDS_P1;SDS_P2;PMS_P1;PMS_P2;Temp;Humidity;BMP_temperature;BMP_pressure;BME280_temperature;BME280_humidity;BME280_pressure;Samples;Min_cycle;Max_cycle;Signal;HPM_P1;HPM_P2
2024/01/23 00:00:07;;;;;;;;;;;;;;;16.99;35.05;102255.31;5101403;28;1093;-44
2024/01/23 00:02:32;;;;;;;;;;;;;;;16.06;36.58;102253.56;5115583;28;1069;-41
2024/01/23 00:04:58;;;;;;;;;;;;;;;15.62;37.31;102260.78;5113060;28;1057;-47
2024/01/23 00:07:23;;;;;;;;;;;;;;;15.41;38.27;102247.53;5092275;28;1204;-46
2024/01/23 00:09:49;;;;;;;;;;;;;;;16.88;35.38;102256.72;5107914;28;1187;-50
2024/01/23 00:12:14;;;;;;;;;;;;;;;17.39;34.37;102247.13;5102041;28;1858;-48
2024/01/23 00:14:40;;;;;;;;;;;;;;;16.29;36.26;102246.28;5116475;28;1091;-46
2024/01/23 00:17:05;;;;;;;;;;;;;;;15.82;37.13;102253.72;5110665;28;1096;-44
2024/01/23 00:19:31;;;;;;;;;;;;;;;15.45;38.09;102250.91;5109706;28;1929;-50
2024/01/23 00:21:56;;;;;;;;;;;;;;;16.39;36.21;102236.09;5090610;28;1061;-45
2024/01/23 00:24:22;;;;;;;;;;;;;;;17.44;34.41;102233.56;5113185;28;1071;-49
2024/01/23 00:26:47;;;;;;;;;;;;;;;16.79;35.30;102232.41;5099239;28;1090;-46
2024/01/23 00:29:13;;;;;;;;;;;;;;;16.05;36.91;102230.59;5100714;28;1045;-47
2024/01/23 00:31:38;;;;;;;;;;;;;;;15.62;37.57;102223.66;5098811;28;1061;-44
2024/01/23 00:34:04;;;;;;;;;;;;;;;15.36;37.83;102222.16;5112007;28;1209;-46
2024/01/23 00:36:29;;;;;;;;;;;;;;;16.64;35.84;102217.16;5087276;28;1054;-51
2024/01/23 00:38:55;;;;;;;;;;;;;;;17.60;34.02;102210.50;5096901;28;1917;-45
2024/01/23 00:41:20;;;;;;;;;;;;;;;16.64;35.63;102210.97;5090682;28;1057;-51
2024/01/23 00:43:46;;;;;;;;;;;;;;;15.95;36.84;102210.69;5091332;28;2303;-45
2024/01/23 00:46:11;;;;;;;;;;;;;;;15.63;37.61;102200.66;5118947;28;1057;-45
2024/01/23 00:48:37;;;;;;;;;;;;;;;15.46;37.73;102196.97;5110340;28;1065;-49
2024/01/23 00:51:02;;;;;;;;;;;;;;;16.94;35.03;102190.88;5100902;28;1089;-45
2024/01/23 00:53:28;;;;;;;;;;;;;;;17.36;34.19;102176.31;5101172;28;1076;-43
2024/01/23 00:55:53;;;;;;;;;;;;;;;16.26;36.27;102178.28;5109584;28;1072;-45
2024/01/23 00:58:19;;;;;;;;;;;;;;;15.72;37.16;102164.84;5118324;28;1909;-47
2024/01/23 01:00:44;;;;;;;;;;;;;;;15.42;37.54;102156.47;5110083;28;1093;-44
2024/01/23 01:03:10;;;;;;;;;;;;;;;16.60;35.75;102162.44;5116507;28;1158;-41
2024/01/23 01:05:36;;;;;;;;;;;;;;;17.56;34.19;102160.22;5114544;28;1106;-44
2024/01/23 01:08:01;;;;;;;;;;;;;;;16.59;35.60;102162.53;5101651;28;1023;-43
2024/01/23 01:10:27;;;;;;;;;;;;;;;15.95;36.63;102147.84;5118081;28;1022;-44
2024/01/23 01:12:53;;;;;;;;;;;;;;;15.59;37.54;102144.22;5106699;28;1942;-46
2024/01/23 01:15:18;;;;;;;;;;;;;;;15.53;37.43;102144.50;5118700;28;1070;-46
2024/01/23 01:17:44;;;;;;;;;;;;;;;17.00;35.01;102140.91;5105667;28;1979;-45
2024/01/23 01:20:10;;;;;;;;;;;;;;;17.32;34.29;102137.53;5117988;28;1049;-45
2024/01/23 01:22:35;;;;;;;;;;;;;;;16.29;35.94;102134.75;5114800;28;1101;-41
2024/01/23 01:25:01;;;;;;;;;;;;;;;15.79;36.88;102137.13;5107513;28;1201;-46
2024/01/23 01:27:27;;;;;;;;;;;;;;;15.43;37.48;102141.41;5114892;28;1118;-47
2024/01/23 01:29:52;;;;;;;;;;;;;;;16.47;35.93;102132.97;5103121;28;1110;-46
2024/01/23 01:32:18;;;;;;;;;;;;;;;17.51;34.16;102125.88;5100028;28;1051;-46
2024/01/23 01:34:43;;;;;;;;;;;;;;;16.57;35.50;102124.53;5117962;28;1086;-46
2024/01/23 01:37:09;;;;;;;;;;;;;;;15.89;36.89;102126.91;5104287;28;1142;-47
2024/01/23 01:39:35;;;;;;;;;;;;;;;15.56;37.65;102125.78;5117662;28;1909;-44
2024/01/23 01:42:00;;;;;;;;;;;;;;;16.46;35.81;102119.78;5099270;28;1747;-45
2024/01/23 01:44:26;;;;;;;;;;;;;;;17.50;34.08;102116.16;5097583;28;1123;-44
2024/01/23 01:46:51;;;;;;;;;;;;;;;16.91;34.85;102108.66;5114747;28;1078;-45
2024/01/23 01:49:16;;;;;;;;;;;;;;;16.10;36.36;102106.47;5079672;28;1115;-49
2024/01/23 01:51:42;;;;;;;;;;;;;;;15.67;37.29;102104.06;5095812;28;1361;-46
2024/01/23 01:54:08;;;;;;;;;;;;;;;15.37;37.84;102099.25;5112225;28;1121;-43
2024/01/23 01:56:33;;;;;;;;;;;;;;;16.56;35.68;102104.22;5113707;28;1201;-44
2024/01/23 01:58:59;;;;;;;;;;;;;;;17.55;33.83;102099.97;5099217;28;1913;-47
2024/01/23 02:01:25;;;;;;;;;;;;;;;16.58;35.45;102094.41;5117296;28;1112;-47
2024/01/23 02:03:50;;;;;;;;;;;;;;;15.90;36.65;102094.13;5117470;28;1077;-45
2024/01/23 02:06:17;;;;;;;;;;;;;;;15.55;37.42;102090.44;5114117;28;1172;-46
2024/01/23 02:08:42;;;;;;;;;;;;;;;15.98;36.62;102088.47;5099021;28;1411;-47
2024/01/23 02:11:08;;;;;;;;;;;;;;;17.27;34.39;102077.56;5098456;28;1022;-47
2024/01/23 02:13:33;;;;;;;;;;;;;;;17.07;34.37;102077.66;5104943;28;2503;-45
2024/01/23 02:15:59;;;;;;;;;;;;;;;16.19;35.90;102081.25;5103737;28;1153;-47
2024/01/23 02:18:24;;;;;;;;;;;;;;;15.72;36.89;102087.91;5113672;28;1901;-46
2024/01/23 02:20:50;;;;;;;;;;;;;;;15.45;37.47;102078.53;5116505;28;1065;-47
2024/01/23 02:23:15;;;;;;;;;;;;;;;16.93;34.92;102073.09;5117066;28;1092;-49
2024/01/23 02:25:41;;;;;;;;;;;;;;;17.23;34.21;102069.72;5102900;28;1162;-43
2024/01/23 02:28:07;;;;;;;;;;;;;;;16.27;35.70;102073.78;5116748;28;1030;-45
2024/01/23 02:30:34;;;;;;;;;;;;;;;15.73;37.07;102069.25;5112002;28;1072;-47
2024/01/23 02:33:03;;;;;;;;;;;;;;;15.40;37.47;102067.28;5116405;28;1218;-48
2024/01/23 02:35:30;;;;;;;;;;;;;;;16.38;35.95;102064.41;5103368;28;1077;-45
2024/01/23 02:37:55;;;;;;;;;;;;;;;17.44;33.86;102069.50;5097336;28;1913;-50
2024/01/23 02:40:21;;;;;;;;;;;;;;;16.67;35.17;102062.03;5082021;28;1121;-44
2024/01/23 02:42:46;;;;;;;;;;;;;;;15.95;36.54;102065.56;5113359;28;1863;-50
2024/01/23 02:45:12;;;;;;;;;;;;;;;15.54;37.28;102067.50;5102922;28;1030;-46
2024/01/23 02:47:37;;;;;;;;;;;;;;;15.29;37.92;102063.38;5116398;28;1053;-48
2024/01/23 02:50:03;;;;;;;;;;;;;;;16.68;35.42;102047.81;5095754;28;1170;-47
2024/01/23 02:52:31;;;;;;;;;;;;;;;17.58;33.55;102058.06;5105451;28;1491;-47
2024/01/23 02:54:58;;;;;;;;;;;;;;;16.87;34.71;102049.47;5107662;28;1108;-50
2024/01/23 02:57:23;;;;;;;;;;;;;;;16.09;35.90;102040.16;5105768;28;1082;-50
2024/01/23 02:59:49;;;;;;;;;;;;;;;15.64;36.78;102038.75;5102301;28;1905;-45
2024/01/23 03:02:14;;;;;;;;;;;;;;;15.72;36.92;102034.84;5116600;28;1121;-46
2024/01/23 03:04:40;;;;;;;;;;;;;;;17.07;34.76;102028.94;5116651;28;1113;-50
2024/01/23 03:07:05;;;;;;;;;;;;;;;17.02;34.40;102018.56;5115307;28;1142;-47
2024/01/23 03:09:31;;;;;;;;;;;;;;;16.18;35.91;102018.50;5116000;28;1527;-47
2024/01/23 03:11:56;;;;;;;;;;;;;;;15.66;36.91;102018.28;5112429;28;2260;-45
2024/01/23 03:14:22;;;;;;;;;;;;;;;15.57;37.59;102021.41;5105306;28;1054;-45
2024/01/23 03:16:47;;;;;;;;;;;;;;;17.00;34.54;102010.66;5105172;28;1052;-51
2024/01/23 03:19:13;;;;;;;;;;;;;;;17.28;33.86;102010.97;5103657;28;1910;-49
2024/01/23 03:21:38;;;;;;;;;;;;;;;16.28;35.75;102013.56;5085333;28;1111;-46
2024/01/23 03:24:04;;;;;;;;;;;;;;;15.78;36.76;102008.88;5110749;28;1124;-49
2024/01/23 03:26:29;;;;;;;;;;;;;;;15.41;37.33;102011.53;5116014;28;1061;-45
2024/01/23 03:28:55;;;;;;;;;;;;;;;16.76;35.27;101999.56;5099900;28;1142;-46
2024/01/23 03:31:20;;;;;;;;;;;;;;;17.58;33.63;101999.53;5104749;28;926;-49
2024/01/23 03:33:46;;;;;;;;;;;;;;;16.49;35.36;101989.47;5115367;28;1421;-49
2024/01/23 03:36:12;;;;;;;;;;;;;;;15.84;36.75;101998.91;5107547;28;1098;-46
2024/01/23 03:38:37;;;;;;;;;;;;;;;15.51;37.40;101998.72;5094986;28;1973;-45
2024/01/23 03:41:03;;;;;;;;;;;;;;;15.45;37.54;101998.16;5104428;28;1058;-45
2024/01/23 03:43:29;;;;;;;;;;;;;;;16.90;34.65;101990.81;5103384;28;2309;-48
2024/01/23 03:45:54;;;;;;;;;;;;;;;17.27;33.88;101990.63;5105751;28;1134;-47
2024/01/23 03:48:20;;;;;;;;;;;;;;;16.24;35.50;102004.03;5104515;28;1197;-47
2024/01/23 03:50:45;;;;;;;;;;;;;;;15.65;36.80;102005.09;5108709;28;1073;-46
2024/01/23 03:53:11;;;;;;;;;;;;;;;15.52;37.11;102007.50;5106412;28;1096;-48
2024/01/23 03:55:36;;;;;;;;;;;;;;;16.94;34.76;102000.38;5118544;28;872;-47
2024/01/23 03:58:02;;;;;;;;;;;;;;;17.27;34.03;101990.63;5106368;28;1914;-47
2024/01/23 04:00:28;;;;;;;;;;;;;;;16.15;35.69;101994.72;5120527;28;1133;-47
2024/01/23 04:02:54;;;;;;;;;;;;;;;15.67;36.48;102000.59;5119576;28;1130;-47
2024/01/23 04:05:20;;;;;;;;;;;;;;;15.28;37.68;101992.69;5120190;28;1116;-46
2024/01/23 04:07:47;;;;;;;;;;;;;;;16.66;35.41;101993.91;5113285;28;1029;-46
2024/01/23 04:10:13;;;;;;;;;;;;;;;17.60;33.37;102002.13;5099160;28;1050;-46
2024/01/23 04:12:38;;;;;;;;;;;;;;;16.76;34.64;101997.78;5102371;28;2301;-48
2024/01/23 04:15:05;;;;;;;;;;;;;;;16.00;36.19;101991.06;5111507;28;1137;-48
2024/01/23 04:17:30;;;;;;;;;;;;;;;15.60;36.74;101993.91;5114394;28;1026;-44
2024/01/23 04:19:56;;;;;;;;;;;;;;;15.35;37.33;101984.47;5108453;28;1910;-48
2024/01/23 04:22:21;;;;;;;;;;;;;;;16.74;35.05;101983.72;5114834;28;1122;-48
2024/01/23 04:24:47;;;;;;;;;;;;;;;17.48;33.42;101980.56;5119189;28;1002;-47
2024/01/23 04:27:12;;;;;;;;;;;;;;;16.32;35.59;101982.38;5092217;28;1276;-48
2024/01/23 04:29:38;;;;;;;;;;;;;;;15.79;36.77;101978.78;5110990;28;1136;-45
2024/01/23 04:32:03;;;;;;;;;;;;;;;15.42;37.21;101976.13;5102459;28;1006;-46
2024/01/23 04:34:29;;;;;;;;;;;;;;;16.60;35.14;101975.63;5107128;28;1281;-47
2024/01/23 04:36:54;;;;;;;;;;;;;;;17.53;33.48;101969.69;5118712;28;1073;-44
2024/01/23 04:39:20;;;;;;;;;;;;;;;16.45;34.99;101958.72;5110961;28;1906;-43
2024/01/23 04:41:45;;;;;;;;;;;;;;;15.82;36.21;101966.28;5099531;28;2367;-42
2024/01/23 04:44:11;;;;;;;;;;;;;;;15.50;37.08;101966.94;5085340;28;887;-46
2024/01/23 04:46:36;;;;;;;;;;;;;;;16.43;35.73;101974.72;5107943;28;1078;-50
2024/01/23 04:49:02;;;;;;;;;;;;;;;17.47;33.80;101964.69;5118999;28;1100;-53
2024/01/23 04:51:29;;;;;;;;;;;;;;;16.47;35.16;101959.47;5104728;28;1100;-47
2024/01/23 04:53:55;;;;;;;;;;;;;;;16.12;35.66;101958.59;5118781;28;1077;-42
2024/01/23 04:56:21;;;;;;;;;;;;;;;15.68;36.70;101954.59;5112584;28;1157;-39
2024/01/23 04:58:46;;;;;;;;;;;;;;;16.75;35.12;101956.19;5094744;28;1893;-39
2024/01/23 05:01:12;;;;;;;;;;;;;;;17.55;33.55;101959.78;5118118;28;1073;-39
2024/01/23 05:03:38;;;;;;;;;;;;;;;16.39;35.36;101943.94;5118872;28;998;-40
2024/01/23 05:06:04;;;;;;;;;;;;;;;15.83;36.49;101944.97;5103901;28;1118;-41
2024/01/23 05:08:30;;;;;;;;;;;;;;;15.51;37.35;101948.31;5106193;28;898;-40
2024/01/23 05:10:55;;;;;;;;;;;;;;;16.70;35.20;101938.78;5104066;28;1059;-41
2024/01/23 05:13:20;;;;;;;;;;;;;;;17.53;33.52;101931.56;5098257;28;2232;-39
2024/01/23 05:15:46;;;;;;;;;;;;;;;16.43;35.13;101924.25;5098809;28;1117;-40
2024/01/23 05:18:12;;;;;;;;;;;;;;;15.76;36.44;101925.00;5118785;28;1902;-39
2024/01/23 05:20:38;;;;;;;;;;;;;;;16.93;34.68;101931.34;5117285;28;1053;-38
2024/01/23 05:23:03;;;;;;;;;;;;;;;15.83;36.51;101941.47;5096681;28;1006;-40
2024/01/23 05:25:29;;;;;;;;;;;;;;;15.10;38.01;101940.59;5096195;28;1445;-41
2024/01/23 05:27:55;;;;;;;;;;;;;;;14.56;39.21;101942.94;5097276;28;1094;-40
2024/01/23 05:30:20;;;;;;;;;;;;;;;16.58;35.42;101933.19;5105166;28;1150;-37
2024/01/23 05:32:46;;;;;;;;;;;;;;;15.47;37.19;101937.91;5105458;28;1049;-40
2024/01/23 05:35:11;;;;;;;;;;;;;;;14.69;38.68;101929.16;5111077;28;1014;-43
2024/01/23 05:37:37;;;;;;;;;;;;;;;16.67;35.25;101928.31;5097574;28;1981;-40
2024/01/23 05:40:04;;;;;;;;;;;;;;;16.00;36.15;101924.69;5097590;28;1022;-38
2024/01/23 05:42:29;;;;;;;;;;;;;;;15.04;38.25;101928.47;5104396;28;1748;-39
2024/01/23 05:44:56;;;;;;;;;;;;;;;16.22;36.16;101926.25;5103556;28;1209;-42
2024/01/23 05:47:21;;;;;;;;;;;;;;;15.81;36.63;101916.81;5091989;28;1087;-37
2024/01/23 05:49:47;;;;;;;;;;;;;;;14.96;38.29;101914.72;5094809;28;1099;-42
2024/01/23 05:52:12;;;;;;;;;;;;;;;16.28;36.13;101917.97;5104497;28;1106;-41
2024/01/23 05:54:41;;;;;;;;;;;;;;;16.91;34.44;101912.81;5110637;28;1153;-40
2024/01/23 05:57:09;;;;;;;;;;;;;;;15.22;37.42;101908.16;5108714;28;1185;-40
2024/01/23 05:59:35;;;;;;;;;;;;;;;14.81;38.51;101914.50;5108710;28;2001;-39
2024/01/23 06:02:00;;;;;;;;;;;;;;;16.55;35.67;101904.13;5103949;28;1085;-39
2024/01/23 06:04:26;;;;;;;;;;;;;;;16.81;34.74;101901.00;5112883;28;1071;-37
2024/01/23 06:06:51;;;;;;;;;;;;;;;15.46;37.10;101899.94;5096974;28;1114;-38
2024/01/23 06:09:17;;;;;;;;;;;;;;;16.37;35.99;101900.66;5097921;28;944;-37
2024/01/23 06:11:42;;;;;;;;;;;;;;;15.97;36.38;101900.94;5102644;28;1118;-37
2024/01/23 06:14:08;;;;;;;;;;;;;;;15.27;37.79;101903.50;5097250;28;2209;-37
2024/01/23 06:16:33;;;;;;;;;;;;;;;17.20;34.17;101898.88;5117395;28;1037;-40
2024/01/23 06:18:59;;;;;;;;;;;;;;;15.47;37.16;101904.31;5102691;28;1913;-38
2024/01/23 06:21:24;;;;;;;;;;;;;;;15.02;38.70;101896.75;5104450;28;1050;-39
2024/01/23 06:23:50;;;;;;;;;;;;;;;17.25;34.26;101907.41;5101609;28;1114;-43
2024/01/23 06:26:16;;;;;;;;;;;;;;;15.72;37.01;101903.06;5097013;28;1083;-37
2024/01/23 06:28:41;;;;;;;;;;;;;;;15.67;37.56;101907.75;5088403;28;1099;-41
2024/01/23 06:31:07;;;;;;;;;;;;;;;16.53;35.35;101906.03;5109810;28;1177;-41
2024/01/23 06:33:33;;;;;;;;;;;;;;;15.40;37.35;101903.75;5097198;28;1126;-41
2024/01/23 06:35:58;;;;;;;;;;;;;;;15.72;37.44;101897.75;5104011;28;1059;-40
2024/01/23 06:38:24;;;;;;;;;;;;;;;15.45;37.74;101900.88;5098900;28;1910;-38
2024/01/23 06:40:49;;;;;;;;;;;;;;;14.90;38.27;101903.47;5099033;28;2267;-38
2024/01/23 06:43:15;;;;;;;;;;;;;;;16.71;35.35;101896.19;5102965;28;1148;-39
2024/01/23 06:45:40;;;;;;;;;;;;;;;16.57;35.15;101888.09;5108887;28;1046;-40
2024/01/23 06:48:06;;;;;;;;;;;;;;;15.36;37.50;101890.72;5096518;28;1070;-40
2024/01/23 06:50:32;;;;;;;;;;;;;;;16.56;35.82;101884.63;5103293;28;1054;-38
2024/01/23 06:52:57;;;;;;;;;;;;;;;15.96;36.63;101886.84;5093525;28;1113;-39
2024/01/23 06:55:23;;;;;;;;;;;;;;;15.20;37.75;101887.97;5082814;28;1062;-43
2024/01/23 06:57:48;;;;;;;;;;;;;;;16.36;36.38;101881.25;5103659;28;1989;-54
2024/01/23 07:00:14;;;;;;;;;;;;;;;16.49;35.52;101881.44;5102309;28;1312;-55
2024/01/23 07:02:40;;;;;;;;;;;;;;;15.36;37.43;101882.78;5113921;28;1120;-56
2024/01/23 07:05:05;;;;;;;;;;;;;;;14.91;38.50;101878.69;5096050;28;1032;-52
2024/01/23 07:07:31;;;;;;;;;;;;;;;16.91;35.19;101885.38;5095648;28;1101;-51
2024/01/23 07:09:56;;;;;;;;;;;;;;;15.59;37.04;101878.09;5092848;28;1107;-55
2024/01/23 07:12:22;;;;;;;;;;;;;;;14.98;38.33;101871.31;5100141;28;1201;-54
2024/01/23 07:14:47;;;;;;;;;;;;;;;16.25;35.89;101855.25;5093015;28;1163;-56
2024/01/23 07:17:14;;;;;;;;;;;;;;;15.18;38.13;101870.34;5084670;28;1102;-53
2024/01/23 07:19:40;;;;;;;;;;;;;;;16.15;36.83;101869.94;5095248;28;1984;-55
2024/01/23 07:22:05;;;;;;;;;;;;;;;16.85;34.78;101871.50;5096027;28;871;-53
2024/01/23 07:24:31;;;;;;;;;;;;;;;15.43;37.64;101866.47;5108023;28;1245;-52
2024/01/23 07:26:56;;;;;;;;;;;;;;;16.81;35.16;101877.94;5080912;28;1281;-55
2024/01/23 07:29:22;;;;;;;;;;;;;;;15.99;36.43;101869.91;5085437;28;1367;-53
2024/01/23 07:31:48;;;;;;;;;;;;;;;15.18;37.91;101874.81;5077566;28;1171;-43
2024/01/23 07:34:13;;;;;;;;;;;;;;;16.98;35.08;101873.47;5091242;28;954;-42
2024/01/23 07:36:39;;;;;;;;;;;;;;;15.95;36.43;101863.88;5101632;28;1065;-43
2024/01/23 07:39:05;;;;;;;;;;;;;;;15.15;37.92;101851.94;5102632;28;1922;-44
2024/01/23 07:41:31;;;;;;;;;;;;;;;15.44;38.20;101859.38;5095518;28;1051;-38
2024/01/23 07:43:56;;;;;;;;;;;;;;;16.67;35.21;101849.47;5099308;28;1146;-41
2024/01/23 07:46:22;;;;;;;;;;;;;;;15.39;37.88;101853.44;5094830;28;998;-43
2024/01/23 07:48:48;;;;;;;;;;;;;;;14.96;38.39;101867.03;5076622;28;1086;-42
2024/01/23 07:51:14;;;;;;;;;;;;;;;17.01;34.77;101860.00;5090051;28;1098;-44
2024/01/23 07:53:39;;;;;;;;;;;;;;;15.59;37.19;101854.22;5090420;28;1099;-45
2024/01/23 07:56:05;;;;;;;;;;;;;;;14.99;38.57;101856.28;5109200;28;1081;-42
2024/01/23 07:58:30;;;;;;;;;;;;;;;16.65;35.72;101848.69;5100736;28;1909;-42
2024/01/23 08:00:56;;;;;;;;;;;;;;;15.94;36.36;101848.91;5104319;28;1093;-46
2024/01/23 08:03:21;;;;;;;;;;;;;;;16.19;36.50;101852.94;5089624;28;1264;-43
2024/01/23 08:05:47;;;;;;;;;;;;;;;17.48;33.65;101850.22;5092310;28;1273;-42
2024/01/23 08:08:12;;;;;;;;;;;;;;;15.66;37.35;101856.47;5107375;28;1024;-41
2024/01/23 08:10:38;;;;;;;;;;;;;;;15.15;38.06;101846.63;5108612;28;893;-39
2024/01/23 08:13:03;;;;;;;;;;;;;;;16.61;35.57;101848.03;5110123;28;1108;-43
2024/01/23 08:15:29;;;;;;;;;;;;;;;15.63;37.02;101847.84;5095560;28;1133;-42
2024/01/23 08:17:55;;;;;;;;;;;;;;;16.27;36.03;101834.78;5108849;28;1917;-38
2024/01/23 08:20:21;;;;;;;;;;;;;;;16.87;35.04;101851.00;5095161;28;1038;-41
2024/01/23 08:22:47;;;;;;;;;;;;;;;15.53;37.20;101843.00;5114564;28;1149;-43
2024/01/23 08:25:12;;;;;;;;;;;;;;;15.10;38.47;101839.88;5102953;28;1026;-38
2024/01/23 08:27:38;;;;;;;;;;;;;;;14.93;38.92;101837.09;5108323;28;1125;-43
2024/01/23 08:30:03;;;;;;;;;;;;;;;17.03;34.88;101823.56;5108280;28;1205;-41
2024/01/23 08:32:29;;;;;;;;;;;;;;;15.39;37.77;101825.16;5104147;28;1183;-42
2024/01/23 08:34:54;;;;;;;;;;;;;;;15.00;38.67;101824.41;5118903;28;1161;-44
2024/01/23 08:37:20;;;;;;;;;;;;;;;17.09;34.83;101833.88;5105760;28;1181;-37
2024/01/23 08:39:45;;;;;;;;;;;;;;;15.57;37.40;101821.63;5119447;28;1980;-39
2024/01/23 08:42:11;;;;;;;;;;;;;;;14.98;38.73;101820.13;5100700;28;1065;-40
2024/01/23 08:44:37;;;;;;;;;;;;;;;16.87;35.45;101821.78;5099587;28;1061;-44
2024/01/23 08:47:03;;;;;;;;;;;;;;;16.30;36.06;101823.13;5117032;28;887;-40
2024/01/23 08:49:29;;;;;;;;;;;;;;;15.33;38.08;101820.13;5095046;28;1157;-41
2024/01/23 08:51:55;;;;;;;;;;;;;;;15.05;38.20;101813.56;5090485;28;1062;-38
2024/01/23 08:54:20;;;;;;;;;;;;;;;16.96;35.36;101812.41;5098532;28;1070;-42
2024/01/23 08:56:46;;;;;;;;;;;;;;;16.25;36.00;101804.81;5098725;28;1018;-42
2024/01/23 08:59:13;;;;;;;;;;;;;;;15.31;37.87;101798.16;5111254;28;1913;-39
2024/01/23 09:01:39;;;;;;;;;;;;;;;15.52;38.22;101805.94;5111542;28;1200;-39
2024/01/23 09:04:05;;;;;;;;;;;;;;;16.52;35.88;101800.69;5112207;28;1108;-38
2024/01/23 09:06:31;;;;;;;;;;;;;;;15.30;37.75;101785.84;5098749;28;1026;-39
2024/01/23 09:08:56;;;;;;;;;;;;;;;14.93;38.89;101792.03;5098487;28;1105;-44
2024/01/23 09:11:22;;;;;;;;;;;;;;;16.38;36.33;101788.22;5107652;28;1170;-42
2024/01/23 09:13:47;;;;;;;;;;;;;;;15.80;37.02;101775.31;5080783;28;1300;-43
2024/01/23 09:16:13;;;;;;;;;;;;;;;15.00;38.63;101766.09;5085678;28;1122;-40
2024/01/23 09:18:40;;;;;;;;;;;;;;;14.81;39.26;101766.16;5100491;28;1963;-43
2024/01/23 09:21:08;;;;;;;;;;;;;;;16.80;35.52;101769.91;5109053;28;1077;-42
2024/01/23 09:23:33;;;;;;;;;;;;;;;15.84;36.93;101763.63;5098410;28;1093;-44
2024/01/23 09:25:59;;;;;;;;;;;;;;;15.08;38.65;101754.28;5089236;28;1284;-44
2024/01/23 09:28:24;;;;;;;;;;;;;;;15.82;37.32;101754.00;5117758;28;1066;-40
2024/01/23 09:30:50;;;;;;;;;;;;;;;16.72;35.24;101738.47;5105446;28;1034;-39
2024/01/23 09:33:15;;;;;;;;;;;;;;;15.32;38.14;101746.84;5111684;28;1233;-40
2024/01/23 09:35:41;;;;;;;;;;;;;;;14.88;39.13;101742.88;5098211;28;1061;-40
2024/01/23 09:38:07;;;;;;;;;;;;;;;17.14;34.83;101745.84;5097806;28;1965;-40
2024/01/23 09:40:32;;;;;;;;;;;;;;;15.49;37.72;101737.16;5098368;28;1161;-40
2024/01/23 09:42:58;;;;;;;;;;;;;;;15.25;38.29;101727.75;5104201;28;1086;-42
2024/01/23 09:45:28;;;;;;;;;;;;;;;16.34;36.29;101726.44;5117398;28;868;-40
2024/01/23 09:47:53;;;;;;;;;;;;;;;15.24;38.17;101720.75;5084812;28;1094;-42
2024/01/23 09:50:19;;;;;;;;;;;;;;;14.91;39.05;101729.47;5097709;28;1166;-40
2024/01/23 09:52:45;;;;;;;;;;;;;;;16.47;36.41;101725.72;5086643;28;1006;-41
2024/01/23 09:55:11;;;;;;;;;;;;;;;16.41;35.74;101716.34;5104808;28;1038;-42
2024/01/23 09:57:39;;;;;;;;;;;;;;;15.24;38.58;101718.09;5084086;28;995;-40
2024/01/23 10:00:11;;;;;;;;;;;;;;;14.99;38.72;101729.09;5097440;28;1911;-37
2024/01/23 10:02:40;;;;;;;;;;;;;;;16.70;35.49;101728.91;5117440;28;1033;-41
2024/01/23 10:05:07;;;;;;;;;;;;;;;15.19;38.22;101717.47;5102730;28;1081;-43
2024/01/23 10:07:32;;;;;;;;;;;;;;;17.07;35.10;101715.22;5097569;28;1142;-42
2024/01/23 10:10:05;;;;;;;;;;;;;;;16.24;36.07;101726.09;5103695;28;1173;-42
2024/01/23 10:12:32;;;;;;;;;;;;;;;15.34;38.33;101718.47;5103636;28;990;-39
2024/01/23 10:14:58;;;;;;;;;;;;;;;17.46;34.33;101728.91;5102094;28;1129;-43
2024/01/23 10:17:24;;;;;;;;;;;;;;;15.86;37.35;101724.59;5086941;28;1019;-40
2024/01/23 10:19:49;;;;;;;;;;;;;;;15.21;38.34;101728.00;5095839;28;1976;-39
2024/01/23 10:22:16;;;;;;;;;;;;;;;16.62;35.96;101731.97;5116701;28;1109;-40
2024/01/23 10:24:42;;;;;;;;;;;;;;;15.66;37.69;101723.84;5076970;28;1383;-40
2024/01/23 10:27:07;;;;;;;;;;;;;;;15.06;38.75;101715.44;5097216;28;1217;-40
2024/01/23 10:29:34;;;;;;;;;;;;;;;17.13;35.14;101721.06;5104608;28;1058;-43
2024/01/23 10:31:59;;;;;;;;;;;;;;;15.55;37.90;101727.09;5078729;28;1043;-40
2024/01/23 10:34:25;;;;;;;;;;;;;;;15.03;38.81;101715.59;5103280;28;1137;-38
2024/01/23 10:36:55;;;;;;;;;;;;;;;17.19;35.18;101722.50;5078663;28;1094;-43
2024/01/23 10:39:21;;;;;;;;;;;;;;;15.71;37.23;101705.06;5102980;28;1898;-41
2024/01/23 10:41:48;;;;;;;;;;;;;;;15.18;38.91;101700.69;5088029;28;1075;-38
2024/01/23 10:44:14;;;;;;;;;;;;;;;14.98;39.41;101706.19;5091574;28;1255;-39
2024/01/23 10:46:40;;;;;;;;;;;;;;;17.25;35.03;101703.50;5069734;28;1139;-39
2024/01/23 10:49:06;;;;;;;;;;;;;;;15.76;37.43;101699.50;5093272;28;1095;-41
2024/01/23 10:51:31;;;;;;;;;;;;;;;15.12;38.71;101698.38;5090254;28;1104;-38
2024/01/23 10:54:08;;;;;;;;;;;;;;;14.92;39.03;101702.91;5097586;28;1101;-41
2024/01/23 10:56:43;;;;;;;;;;;;;;;17.10;35.25;101699.13;5096450;28;1022;-39
2024/01/23 10:59:18;;;;;;;;;;;;;;;15.46;37.93;101695.75;5088334;28;1921;-42
2024/01/23 11:01:46;;;;;;;;;;;;;;;15.00;38.86;101686.59;5096100;28;1163;-38
2024/01/23 11:04:12;;;;;;;;;;;;;;;16.88;35.62;101684.44;5077497;28;1018;-43
2024/01/23 11:06:58;;;;;;;;;;;;;;;15.82;37.53;101679.72;5085071;28;1109;-42
2024/01/23 11:09:26;;;;;;;;;;;;;;;15.06;38.94;101674.84;5082715;28;1395;-41
2024/01/23 11:12:04;;;;;;;;;;;;;;;14.84;39.62;101675.94;5071554;28;1047;-45
2024/01/23 11:14:30;;;;;;;;;;;;;;;16.53;36.02;101669.63;5075482;28;908;-42
2024/01/23 11:17:03;;;;;;;;;;;;;;;15.22;38.50;101664.28;5071460;28;1011;-46
2024/01/23 11:19:28;;;;;;;;;;;;;;;16.12;37.40;101666.59;5093183;28;1982;-41
2024/01/23 11:22:01;;;;;;;;;;;;;;;16.57;36.09;101662.31;5082845;28;1016;-41
2024/01/23 11:24:45;;;;;;;;;;;;;;;15.32;38.32;101651.41;5092586;28;1256;-41
2024/01/23 11:27:23;;;;;;;;;;;;;;;16.44;36.79;101655.06;5083643;28;1412;-40
2024/01/23 11:29:49;;;;;;;;;;;;;;;15.52;38.37;101649.47;5088676;28;1253;-42
2024/01/23 11:32:15;;;;;;;;;;;;;;;15.10;39.38;101643.75;5085113;28;1045;-41
2024/01/23 11:34:41;;;;;;;;;;;;;;;16.23;36.84;101646.53;5105775;28;1030;-40
2024/01/23 11:37:27;;;;;;;;;;;;;;;15.25;38.63;101647.38;5098763;28;1158;-39
2024/01/23 11:39:52;;;;;;;;;;;;;;;17.13;35.64;101661.72;5088669;28;1901;-45
2024/01/23 11:42:18;;;;;;;;;;;;;;;16.70;35.84;101658.00;5104909;28;986;-46
2024/01/23 11:44:43;;;;;;;;;;;;;;;15.50;38.55;101656.66;5092430;28;1088;-40
2024/01/23 11:47:09;;;;;;;;;;;;;;;15.25;38.96;101647.38;5095901;28;1053;-40
2024/01/23 11:49:34;;;;;;;;;;;;;;;16.62;36.12;101644.31;5094371;28;1499;-43
2024/01/23 11:52:00;;;;;;;;;;;;;;;15.29;38.83;101640.97;5087553;28;1012;-42
2024/01/23 11:54:25;;;;;;;;;;;;;;;14.99;39.60;101639.88;5095247;28;1061;-40
2024/01/23 11:56:51;;;;;;;;;;;;;;;16.01;37.75;101638.00;5077805;28;1078;-40
2024/01/23 11:59:17;;;;;;;;;;;;;;;16.19;36.92;101635.25;5095325;28;1993;-40
2024/01/23 12:01:43;;;;;;;;;;;;;;;15.25;38.77;101634.97;5095931;28;1030;-43
2024/01/23 12:04:08;;;;;;;;;;;;;;;16.21;37.23;101636.00;5077451;28;1165;-39
2024/01/23 12:06:34;;;;;;;;;;;;;;;16.86;35.54;101643.81;5078109;28;1466;-41
2024/01/23 12:09:00;;;;;;;;;;;;;;;15.60;38.40;101638.47;5081360;28;1449;-43
2024/01/23 12:11:25;;;;;;;;;;;;;;;15.50;38.79;101638.97;5094751;28;1103;-42
2024/01/23 12:13:51;;;;;;;;;;;;;;;17.53;34.88;101642.47;5087849;28;1105;-41
2024/01/23 12:16:17;;;;;;;;;;;;;;;15.96;37.20;101636.50;5097426;28;1063;-43
2024/01/23 12:18:42;;;;;;;;;;;;;;;15.28;38.66;101634.81;5097720;28;1986;-39
2024/01/23 12:21:08;;;;;;;;;;;;;;;15.46;38.77;101626.81;5099271;28;991;-37
2024/01/23 12:23:34;;;;;;;;;;;;;;;15.94;37.62;101635.72;5109362;28;1030;-47
2024/01/23 12:25:59;;;;;;;;;;;;;;;15.16;39.12;101640.78;5088839;28;1204;-41
2024/01/23 12:28:30;;;;;;;;;;;;;;;15.01;39.52;101637.13;5109387;28;1054;-36
2024/01/23 12:30:56;;;;;;;;;;;;;;;16.99;35.79;101631.50;5119800;28;1114;-38
2024/01/23 12:33:21;;;;;;;;;;;;;;;15.58;38.14;101635.03;5072782;28;1225;-38
2024/01/23 12:35:47;;;;;;;;;;;;;;;15.04;39.47;101629.03;5101446;28;1055;-41
2024/01/23 12:38:19;;;;;;;;;;;;;;;16.56;36.67;101637.56;5104151;28;1905;-37
2024/01/23 12:40:44;;;;;;;;;;;;;;;15.70;37.92;101636.19;5112445;28;1067;-36